sensor_id;sensor_type;location;lat;lon;timestamp;P1;durP1;ratioP1;P2;durP2;ratioP2
69240;SDS011;56352;55.750;13.198;2023-07-29T00:01:42;2.20;;;1.42;;
69240;SDS011;56352;55.750;13.198;2023-07-29T00:04:09;2.05;;;1.35;;
69240;SDS011;56352;55.750;13.198;2023-07-29T00:06:38;2.60;;;1.50;;
69240;SDS011;56352;55.750;13.198;2023-07-29T00:09:05;3.75;;;1.50;;
69240;SDS011;56352;55.750;13.198;2023-07-29T00:11:35;5.03;;;1.50;;
69240;SDS011;56352;55.750;13.198;2023-07-29T00:14:03;1.90;;;1.48;;
69240;SDS011;56352;55.750;13.198;2023-07-29T00:16:33;1.70;;;1.40;;
69240;SDS011;56352;55.750;13.198;2023-07-29T00:19:02;3.17;;;1.60;;
69240;SDS011;56352;55.750;13.198;2023-07-29T00:21:29;1.70;;;1.60;;
69240;SDS011;56352;55.750;13.198;2023-07-29T00:23:57;1.73;;;1.38;;
69240;SDS011;56352;55.750;13.198;2023-07-29T00:26:24;2.00;;;1.38;;
69240;SDS011;56352;55.750;13.198;2023-07-29T00:28:57;2.20;;;1.30;;
69240;SDS011;56352;55.750;13.198;2023-07-29T00:31:24;2.78;;;1.42;;
69240;SDS011;56352;55.750;13.198;2023-07-29T00:33:54;2.65;;;1.90;;
69240;SDS011;56352;55.750;13.198;2023-07-29T00:36:21;3.13;;;1.48;;
69240;SDS011;56352;55.750;13.198;2023-07-29T00:38:49;2.35;;;1.55;;
69240;SDS011;56352;55.750;13.198;2023-07-29T00:41:19;2.30;;;1.35;;
69240;SDS011;56352;55.750;13.198;2023-07-29T00:43:48;3.95;;;1.98;;
69240;SDS011;56352;55.750;13.198;2023-07-29T00:46:15;2.88;;;1.40;;
69240;SDS011;56352;55.750;13.198;2023-07-29T00:48:46;2.92;;;1.58;;
69240;SDS011;56352;55.750;13.198;2023-07-29T00:51:18;2.92;;;1.55;;
69240;SDS011;56352;55.750;13.198;2023-07-29T00:53:45;2.80;;;1.30;;
69240;SDS011;56352;55.750;13.198;2023-07-29T00:56:18;3.00;;;1.70;;
69240;SDS011;56352;55.750;13.198;2023-07-29T00:58:49;3.58;;;1.80;;
69240;SDS011;56352;55.750;13.198;2023-07-29T01:01:25;2.88;;;1.50;;
69240;SDS011;56352;55.750;13.198;2023-07-29T01:03:52;2.90;;;1.77;;
69240;SDS011;56352;55.750;13.198;2023-07-29T01:06:26;3.80;;;1.83;;
69240;SDS011;56352;55.750;13.198;2023-07-29T01:08:59;1.88;;;1.58;;
69240;SDS011;56352;55.750;13.198;2023-07-29T01:16:42;3.35;;;1.67;;
69240;SDS011;56352;55.750;13.198;2023-07-29T01:20:01;3.75;;;1.90;;
69240;SDS011;56352;55.750;13.198;2023-07-29T01:22:19;2.15;;;1.50;;
69240;SDS011;56352;55.750;13.198;2023-07-29T01:24:47;2.63;;;1.42;;
69240;SDS011;56352;55.750;13.198;2023-07-29T01:27:17;2.08;;;1.58;;
69240;SDS011;56352;55.750;13.198;2023-07-29T01:29:44;3.42;;;1.70;;
69240;SDS011;56352;55.750;13.198;2023-07-29T01:32:40;1.80;;;1.55;;
69240;SDS011;56352;55.750;13.198;2023-07-29T01:38:18;2.45;;;1.70;;
69240;SDS011;56352;55.750;13.198;2023-07-29T01:40:50;2.63;;;1.83;;
69240;SDS011;56352;55.750;13.198;2023-07-29T01:43:26;3.17;;;1.63;;
69240;SDS011;56352;55.750;13.198;2023-07-29T01:45:56;2.60;;;1.35;;
69240;SDS011;56352;55.750;13.198;2023-07-29T01:48:37;2.60;;;1.40;;
69240;SDS011;56352;55.750;13.198;2023-07-29T01:51:14;3.75;;;1.58;;
69240;SDS011;56352;55.750;13.198;2023-07-29T01:53:44;2.50;;;1.75;;
69240;SDS011;56352;55.750;13.198;2023-07-29T01:56:11;2.17;;;1.58;;
69240;SDS011;56352;55.750;13.198;2023-07-29T01:58:38;5.70;;;2.90;;
69240;SDS011;56352;55.750;13.198;2023-07-29T02:01:06;4.35;;;1.73;;
69240;SDS011;56352;55.750;13.198;2023-07-29T02:03:41;2.67;;;1.58;;
69240;SDS011;56352;55.750;13.198;2023-07-29T02:06:26;2.42;;;1.52;;
69240;SDS011;56352;55.750;13.198;2023-07-29T02:12:20;4.07;;;1.75;;
69240;SDS011;56352;55.750;13.198;2023-07-29T02:18:41;2.38;;;1.50;;
69240;SDS011;56352;55.750;13.198;2023-07-29T02:21:36;2.03;;;1.40;;
69240;SDS011;56352;55.750;13.198;2023-07-29T02:24:38;4.10;;;2.00;;
69240;SDS011;56352;55.750;13.198;2023-07-29T02:27:09;3.38;;;1.50;;
69240;SDS011;56352;55.750;13.198;2023-07-29T02:33:22;2.28;;;1.73;;
69240;SDS011;56352;55.750;13.198;2023-07-29T02:36:04;2.55;;;1.67;;
69240;SDS011;56352;55.750;13.198;2023-07-29T02:38:43;2.22;;;1.50;;
69240;SDS011;56352;55.750;13.198;2023-07-29T02:41:35;1.77;;;1.50;;
69240;SDS011;56352;55.750;13.198;2023-07-29T02:44:50;3.22;;;1.60;;
69240;SDS011;56352;55.750;13.198;2023-07-29T02:47:39;6.13;;;1.70;;
69240;SDS011;56352;55.750;13.198;2023-07-29T02:50:34;2.75;;;1.40;;
69240;SDS011;56352;55.750;13.198;2023-07-29T02:53:19;2.22;;;1.38;;
69240;SDS011;56352;55.750;13.198;2023-07-29T02:55:53;3.85;;;1.30;;
69240;SDS011;56352;55.750;13.198;2023-07-29T02:58:34;2.83;;;1.42;;
69240;SDS011;56352;55.750;13.198;2023-07-29T03:01:06;2.30;;;1.30;;
69240;SDS011;56352;55.750;13.198;2023-07-29T03:03:40;2.88;;;1.60;;
69240;SDS011;56352;55.750;13.198;2023-07-29T03:06:14;1.85;;;1.40;;
69240;SDS011;56352;55.750;13.198;2023-07-29T03:08:49;4.20;;;1.30;;
69240;SDS011;56352;55.750;13.198;2023-07-29T03:11:16;2.00;;;1.25;;
69240;SDS011;56352;55.750;13.198;2023-07-29T03:13:46;1.65;;;1.20;;
69240;SDS011;56352;55.750;13.198;2023-07-29T03:16:16;2.78;;;1.15;;
69240;SDS011;56352;55.750;13.198;2023-07-29T03:18:54;3.42;;;1.40;;
69240;SDS011;56352;55.750;13.198;2023-07-29T03:21:21;2.88;;;1.33;;
69240;SDS011;56352;55.750;13.198;2023-07-29T03:23:49;4.13;;;1.73;;
69240;SDS011;56352;55.750;13.198;2023-07-29T03:26:16;2.33;;;1.40;;
69240;SDS011;56352;55.750;13.198;2023-07-29T03:28:43;3.30;;;1.58;;
69240;SDS011;56352;55.750;13.198;2023-07-29T03:31:11;1.50;;;1.10;;
69240;SDS011;56352;55.750;13.198;2023-07-29T03:33:38;3.00;;;1.45;;
69240;SDS011;56352;55.750;13.198;2023-07-29T03:36:07;2.47;;;1.30;;
69240;SDS011;56352;55.750;13.198;2023-07-29T03:38:55;2.90;;;1.55;;
69240;SDS011;56352;55.750;13.198;2023-07-29T03:41:22;1.92;;;1.65;;
69240;SDS011;56352;55.750;13.198;2023-07-29T03:43:49;3.58;;;1.50;;
69240;SDS011;56352;55.750;13.198;2023-07-29T03:46:21;1.98;;;1.50;;
69240;SDS011;56352;55.750;13.198;2023-07-29T03:48:48;3.00;;;1.70;;
69240;SDS011;56352;55.750;13.198;2023-07-29T03:51:15;2.53;;;1.30;;
69240;SDS011;56352;55.750;13.198;2023-07-29T03:53:42;3.67;;;1.50;;
69240;SDS011;56352;55.750;13.198;2023-07-29T03:56:09;1.92;;;1.30;;
69240;SDS011;56352;55.750;13.198;2023-07-29T03:58:43;4.93;;;1.70;;
69240;SDS011;56352;55.750;13.198;2023-07-29T04:01:19;3.15;;;1.80;;
69240;SDS011;56352;55.750;13.198;2023-07-29T04:03:46;3.80;;;2.05;;
69240;SDS011;56352;55.750;13.198;2023-07-29T04:06:13;3.22;;;2.00;;
69240;SDS011;56352;55.750;13.198;2023-07-29T04:08:41;3.33;;;1.90;;
69240;SDS011;56352;55.750;13.198;2023-07-29T04:11:08;2.45;;;1.83;;
69240;SDS011;56352;55.750;13.198;2023-07-29T04:13:35;3.97;;;1.95;;
69240;SDS011;56352;55.750;13.198;2023-07-29T04:16:08;3.45;;;2.00;;
69240;SDS011;56352;55.750;13.198;2023-07-29T04:18:43;3.45;;;2.28;;
69240;SDS011;56352;55.750;13.198;2023-07-29T04:21:10;3.35;;;2.13;;
69240;SDS011;56352;55.750;13.198;2023-07-29T04:23:39;2.30;;;1.95;;
69240;SDS011;56352;55.750;13.198;2023-07-29T04:26:19;4.13;;;2.20;;
69240;SDS011;56352;55.750;13.198;2023-07-29T04:28:46;4.38;;;2.85;;
69240;SDS011;56352;55.750;13.198;2023-07-29T04:31:17;5.33;;;3.17;;
69240;SDS011;56352;55.750;13.198;2023-07-29T04:33:49;5.53;;;3.65;;
69240;SDS011;56352;55.750;13.198;2023-07-29T04:36:16;4.93;;;3.30;;
69240;SDS011;56352;55.750;13.198;2023-07-29T04:38:44;4.25;;;3.30;;
69240;SDS011;56352;55.750;13.198;2023-07-29T04:41:11;5.10;;;3.50;;
69240;SDS011;56352;55.750;13.198;2023-07-29T04:43:38;5.53;;;3.95;;
69240;SDS011;56352;55.750;13.198;2023-07-29T04:46:11;6.18;;;3.75;;
69240;SDS011;56352;55.750;13.198;2023-07-29T04:48:38;6.15;;;4.45;;
69240;SDS011;56352;55.750;13.198;2023-07-29T04:51:14;6.78;;;4.80;;
69240;SDS011;56352;55.750;13.198;2023-07-29T04:53:51;5.20;;;4.50;;
69240;SDS011;56352;55.750;13.198;2023-07-29T04:56:18;6.55;;;4.82;;
69240;SDS011;56352;55.750;13.198;2023-07-29T04:58:48;6.63;;;4.65;;
69240;SDS011;56352;55.750;13.198;2023-07-29T05:01:16;7.38;;;5.07;;
69240;SDS011;56352;55.750;13.198;2023-07-29T05:03:45;7.32;;;4.93;;
69240;SDS011;56352;55.750;13.198;2023-07-29T05:08:44;6.45;;;4.22;;
69240;SDS011;56352;55.750;13.198;2023-07-29T05:11:11;8.73;;;4.78;;
69240;SDS011;56352;55.750;13.198;2023-07-29T05:13:38;6.18;;;4.25;;
69240;SDS011;56352;55.750;13.198;2023-07-29T05:16:12;5.00;;;4.30;;
69240;SDS011;56352;55.750;13.198;2023-07-29T05:18:42;6.55;;;4.25;;
69240;SDS011;56352;55.750;13.198;2023-07-29T05:21:12;7.15;;;4.40;;
69240;SDS011;56352;55.750;13.198;2023-07-29T05:23:41;6.20;;;5.03;;
69240;SDS011;56352;55.750;13.198;2023-07-29T05:29:18;13.07;;;7.43;;
69240;SDS011;56352;55.750;13.198;2023-07-29T05:31:45;10.95;;;6.75;;
69240;SDS011;56352;55.750;13.198;2023-07-29T05:37:09;5.80;;;4.93;;
69240;SDS011;56352;55.750;13.198;2023-07-29T05:39:52;7.20;;;4.80;;
69240;SDS011;56352;55.750;13.198;2023-07-29T05:42:28;8.27;;;5.30;;
69240;SDS011;56352;55.750;13.198;2023-07-29T05:44:55;6.78;;;5.30;;
69240;SDS011;56352;55.750;13.198;2023-07-29T05:47:22;6.50;;;5.45;;
69240;SDS011;56352;55.750;13.198;2023-07-29T05:49:54;7.82;;;5.28;;
69240;SDS011;56352;55.750;13.198;2023-07-29T05:52:21;7.10;;;5.07;;
69240;SDS011;56352;55.750;13.198;2023-07-29T05:54:48;6.20;;;4.65;;
69240;SDS011;56352;55.750;13.198;2023-07-29T05:57:15;6.85;;;5.05;;
69240;SDS011;56352;55.750;13.198;2023-07-29T05:59:46;7.32;;;5.50;;
69240;SDS011;56352;55.750;13.198;2023-07-29T06:02:19;7.82;;;4.95;;
69240;SDS011;56352;55.750;13.198;2023-07-29T06:04:49;5.43;;;4.57;;
69240;SDS011;56352;55.750;13.198;2023-07-29T06:07:16;6.13;;;4.85;;
69240;SDS011;56352;55.750;13.198;2023-07-29T06:09:45;8.23;;;5.65;;
69240;SDS011;56352;55.750;13.198;2023-07-29T06:12:21;7.50;;;5.38;;
69240;SDS011;56352;55.750;13.198;2023-07-29T06:14:48;7.53;;;4.82;;
69240;SDS011;56352;55.750;13.198;2023-07-29T06:17:15;5.55;;;4.75;;
69240;SDS011;56352;55.750;13.198;2023-07-29T06:19:52;7.25;;;5.57;;
69240;SDS011;56352;55.750;13.198;2023-07-29T06:22:30;6.45;;;5.10;;
69240;SDS011;56352;55.750;13.198;2023-07-29T06:25:16;6.00;;;4.90;;
69240;SDS011;56352;55.750;13.198;2023-07-29T06:27:52;7.78;;;4.68;;
69240;SDS011;56352;55.750;13.198;2023-07-29T06:30:26;7.40;;;5.03;;
69240;SDS011;56352;55.750;13.198;2023-07-29T06:32:58;6.03;;;4.65;;
69240;SDS011;56352;55.750;13.198;2023-07-29T06:35:28;5.25;;;4.55;;
69240;SDS011;56352;55.750;13.198;2023-07-29T06:37:57;6.68;;;4.20;;
69240;SDS011;56352;55.750;13.198;2023-07-29T06:40:24;6.97;;;4.30;;
69240;SDS011;56352;55.750;13.198;2023-07-29T06:42:57;5.22;;;3.60;;
69240;SDS011;56352;55.750;13.198;2023-07-29T06:45:24;4.85;;;3.42;;
69240;SDS011;56352;55.750;13.198;2023-07-29T06:47:50;4.93;;;3.50;;
69240;SDS011;56352;55.750;13.198;2023-07-29T06:50:21;4.72;;;3.22;;
69240;SDS011;56352;55.750;13.198;2023-07-29T06:52:53;4.32;;;2.88;;
69240;SDS011;56352;55.750;13.198;2023-07-29T06:55:20;3.70;;;3.13;;
69240;SDS011;56352;55.750;13.198;2023-07-29T06:57:50;4.43;;;2.88;;
69240;SDS011;56352;55.750;13.198;2023-07-29T07:00:17;5.53;;;2.92;;
69240;SDS011;56352;55.750;13.198;2023-07-29T07:02:46;4.38;;;2.70;;
69240;SDS011;56352;55.750;13.198;2023-07-29T07:05:23;3.08;;;2.78;;
69240;SDS011;56352;55.750;13.198;2023-07-29T07:07:50;2.90;;;2.42;;
69240;SDS011;56352;55.750;13.198;2023-07-29T07:10:19;3.05;;;2.30;;
69240;SDS011;56352;55.750;13.198;2023-07-29T07:12:46;2.90;;;2.60;;
69240;SDS011;56352;55.750;13.198;2023-07-29T07:15:18;2.97;;;2.22;;
69240;SDS011;56352;55.750;13.198;2023-07-29T07:17:48;3.85;;;2.42;;
69240;SDS011;56352;55.750;13.198;2023-07-29T07:20:17;3.83;;;2.70;;
69240;SDS011;56352;55.750;13.198;2023-07-29T07:22:49;2.67;;;2.35;;
69240;SDS011;56352;55.750;13.198;2023-07-29T07:25:18;3.35;;;2.03;;
69240;SDS011;56352;55.750;13.198;2023-07-29T07:27:48;4.93;;;2.70;;
69240;SDS011;56352;55.750;13.198;2023-07-29T07:30:15;3.28;;;2.47;;
69240;SDS011;56352;55.750;13.198;2023-07-29T07:32:42;2.90;;;2.60;;
69240;SDS011;56352;55.750;13.198;2023-07-29T07:35:12;2.85;;;2.30;;
69240;SDS011;56352;55.750;13.198;2023-07-29T07:37:40;4.60;;;2.38;;
69240;SDS011;56352;55.750;13.198;2023-07-29T07:40:06;4.63;;;2.22;;
69240;SDS011;56352;55.750;13.198;2023-07-29T07:42:34;2.65;;;2.00;;
69240;SDS011;56352;55.750;13.198;2023-07-29T07:45:01;2.40;;;2.20;;
69240;SDS011;56352;55.750;13.198;2023-07-29T07:47:28;2.90;;;2.30;;
69240;SDS011;56352;55.750;13.198;2023-07-29T07:49:55;3.47;;;2.40;;
69240;SDS011;56352;55.750;13.198;2023-07-29T07:52:21;3.55;;;2.63;;
69240;SDS011;56352;55.750;13.198;2023-07-29T07:54:52;2.78;;;2.40;;
69240;SDS011;56352;55.750;13.198;2023-07-29T07:57:25;3.40;;;2.58;;
69240;SDS011;56352;55.750;13.198;2023-07-29T07:59:52;2.63;;;2.28;;
69240;SDS011;56352;55.750;13.198;2023-07-29T08:02:19;3.45;;;2.65;;
69240;SDS011;56352;55.750;13.198;2023-07-29T08:04:47;3.92;;;2.45;;
69240;SDS011;56352;55.750;13.198;2023-07-29T08:07:14;4.50;;;2.42;;
69240;SDS011;56352;55.750;13.198;2023-07-29T08:09:44;4.28;;;2.45;;
69240;SDS011;56352;55.750;13.198;2023-07-29T08:12:11;2.92;;;2.13;;
69240;SDS011;56352;55.750;13.198;2023-07-29T08:14:38;2.13;;;1.92;;
69240;SDS011;56352;55.750;13.198;2023-07-29T08:17:07;2.00;;;1.80;;
69240;SDS011;56352;55.750;13.198;2023-07-29T08:19:34;2.58;;;2.28;;
69240;SDS011;56352;55.750;13.198;2023-07-29T08:22:02;2.90;;;1.80;;
69240;SDS011;56352;55.750;13.198;2023-07-29T08:24:29;2.60;;;2.13;;
69240;SDS011;56352;55.750;13.198;2023-07-29T08:26:56;2.55;;;1.73;;
69240;SDS011;56352;55.750;13.198;2023-07-29T08:29:23;4.43;;;1.90;;
69240;SDS011;56352;55.750;13.198;2023-07-29T08:31:50;2.00;;;1.73;;
69240;SDS011;56352;55.750;13.198;2023-07-29T08:34:18;2.83;;;1.75;;
69240;SDS011;56352;55.750;13.198;2023-07-29T08:36:44;2.47;;;1.80;;
69240;SDS011;56352;55.750;13.198;2023-07-29T08:39:11;1.80;;;1.70;;
69240;SDS011;56352;55.750;13.198;2023-07-29T08:41:45;3.10;;;2.17;;
69240;SDS011;56352;55.750;13.198;2023-07-29T08:44:38;3.70;;;2.10;;
69240;SDS011;56352;55.750;13.198;2023-07-29T08:47:07;2.45;;;1.80;;
69240;SDS011;56352;55.750;13.198;2023-07-29T08:49:34;6.20;;;1.73;;
69240;SDS011;56352;55.750;13.198;2023-07-29T08:52:02;2.40;;;1.73;;
69240;SDS011;56352;55.750;13.198;2023-07-29T08:54:30;1.80;;;1.70;;
69240;SDS011;56352;55.750;13.198;2023-07-29T08:56:57;2.17;;;1.65;;
69240;SDS011;56352;55.750;13.198;2023-07-29T08:59:24;2.10;;;1.90;;
69240;SDS011;56352;55.750;13.198;2023-07-29T09:01:52;3.05;;;1.92;;
69240;SDS011;56352;55.750;13.198;2023-07-29T09:04:23;2.55;;;2.00;;
69240;SDS011;56352;55.750;13.198;2023-07-29T09:06:51;2.80;;;1.63;;
69240;SDS011;56352;55.750;13.198;2023-07-29T09:09:18;2.65;;;1.90;;
69240;SDS011;56352;55.750;13.198;2023-07-29T09:11:45;3.13;;;2.10;;
69240;SDS011;56352;55.750;13.198;2023-07-29T09:14:12;1.90;;;1.70;;
69240;SDS011;56352;55.750;13.198;2023-07-29T09:16:40;2.13;;;1.85;;
69240;SDS011;56352;55.750;13.198;2023-07-29T09:19:07;2.05;;;1.75;;
69240;SDS011;56352;55.750;13.198;2023-07-29T09:21:33;2.85;;;1.80;;
69240;SDS011;56352;55.750;13.198;2023-07-29T09:24:04;1.85;;;1.67;;
69240;SDS011;56352;55.750;13.198;2023-07-29T09:26:31;2.75;;;1.50;;
69240;SDS011;56352;55.750;13.198;2023-07-29T09:28:59;1.67;;;1.58;;
69240;SDS011;56352;55.750;13.198;2023-07-29T09:31:26;2.17;;;1.80;;
69240;SDS011;56352;55.750;13.198;2023-07-29T09:33:55;1.73;;;1.63;;
69240;SDS011;56352;55.750;13.198;2023-07-29T09:36:24;2.17;;;1.98;;
69240;SDS011;56352;55.750;13.198;2023-07-29T09:38:52;1.50;;;1.40;;
69240;SDS011;56352;55.750;13.198;2023-07-29T09:41:23;2.00;;;1.52;;
69240;SDS011;56352;55.750;13.198;2023-07-29T09:43:57;1.75;;;1.58;;
69240;SDS011;56352;55.750;13.198;2023-07-29T09:46:26;1.45;;;1.35;;
69240;SDS011;56352;55.750;13.198;2023-07-29T09:48:58;1.55;;;1.25;;
69240;SDS011;56352;55.750;13.198;2023-07-29T09:51:25;1.30;;;1.20;;
69240;SDS011;56352;55.750;13.198;2023-07-29T09:53:52;2.58;;;1.17;;
69240;SDS011;56352;55.750;13.198;2023-07-29T09:56:24;1.40;;;1.15;;
69240;SDS011;56352;55.750;13.198;2023-07-29T09:58:55;1.63;;;1.15;;
69240;SDS011;56352;55.750;13.198;2023-07-29T10:01:23;1.48;;;1.30;;
69240;SDS011;56352;55.750;13.198;2023-07-29T10:03:53;1.63;;;1.40;;
69240;SDS011;56352;55.750;13.198;2023-07-29T10:06:22;1.58;;;1.45;;
69240;SDS011;56352;55.750;13.198;2023-07-29T10:08:49;1.70;;;1.52;;
69240;SDS011;56352;55.750;13.198;2023-07-29T10:11:17;1.60;;;1.35;;
69240;SDS011;56352;55.750;13.198;2023-07-29T10:13:46;1.63;;;1.23;;
69240;SDS011;56352;55.750;13.198;2023-07-29T10:16:32;1.77;;;1.30;;
69240;SDS011;56352;55.750;13.198;2023-07-29T10:19:01;1.60;;;1.50;;
69240;SDS011;56352;55.750;13.198;2023-07-29T10:21:28;1.67;;;1.35;;
69240;SDS011;56352;55.750;13.198;2023-07-29T10:23:56;1.63;;;1.52;;
69240;SDS011;56352;55.750;13.198;2023-07-29T10:26:25;3.47;;;1.60;;
69240;SDS011;56352;55.750;13.198;2023-07-29T10:28:54;1.38;;;1.27;;
69240;SDS011;56352;55.750;13.198;2023-07-29T10:31:21;1.40;;;1.30;;
69240;SDS011;56352;55.750;13.198;2023-07-29T10:33:49;3.10;;;1.30;;
69240;SDS011;56352;55.750;13.198;2023-07-29T10:36:16;1.50;;;1.40;;
69240;SDS011;56352;55.750;13.198;2023-07-29T10:38:43;2.20;;;1.25;;
69240;SDS011;56352;55.750;13.198;2023-07-29T10:41:10;2.00;;;1.50;;
69240;SDS011;56352;55.750;13.198;2023-07-29T10:43:37;2.20;;;1.30;;
69240;SDS011;56352;55.750;13.198;2023-07-29T10:46:19;1.77;;;1.35;;
69240;SDS011;56352;55.750;13.198;2023-07-29T10:51:30;1.85;;;1.52;;
69240;SDS011;56352;55.750;13.198;2023-07-29T10:54:01;1.50;;;1.40;;
69240;SDS011;56352;55.750;13.198;2023-07-29T10:56:41;1.35;;;1.25;;
69240;SDS011;56352;55.750;13.198;2023-07-29T11:01:41;2.85;;;1.85;;
69240;SDS011;56352;55.750;13.198;2023-07-29T11:09:52;2.60;;;1.80;;
69240;SDS011;56352;55.750;13.198;2023-07-29T11:12:40;1.95;;;1.63;;
69240;SDS011;56352;55.750;13.198;2023-07-29T11:17:46;1.67;;;1.58;;
69240;SDS011;56352;55.750;13.198;2023-07-29T11:20:41;1.83;;;1.50;;
69240;SDS011;56352;55.750;13.198;2023-07-29T11:23:07;2.50;;;1.63;;
69240;SDS011;56352;55.750;13.198;2023-07-29T11:25:33;1.80;;;1.70;;
69240;SDS011;56352;55.750;13.198;2023-07-29T11:28:02;2.90;;;1.65;;
69240;SDS011;56352;55.750;13.198;2023-07-29T11:30:32;2.22;;;1.90;;
69240;SDS011;56352;55.750;13.198;2023-07-29T11:33:00;3.60;;;2.00;;
69240;SDS011;56352;55.750;13.198;2023-07-29T11:35:27;2.30;;;2.10;;
69240;SDS011;56352;55.750;13.198;2023-07-29T11:37:54;3.60;;;1.95;;
69240;SDS011;56352;55.750;13.198;2023-07-29T11:40:23;2.97;;;2.20;;
69240;SDS011;56352;55.750;13.198;2023-07-29T11:42:51;2.57;;;2.23;;
69240;SDS011;56352;55.750;13.198;2023-07-29T11:45:19;2.10;;;1.88;;
69240;SDS011;56352;55.750;13.198;2023-07-29T11:47:49;2.10;;;1.90;;
69240;SDS011;56352;55.750;13.198;2023-07-29T11:50:16;2.60;;;2.05;;
69240;SDS011;56352;55.750;13.198;2023-07-29T11:52:43;3.13;;;2.15;;
69240;SDS011;56352;55.750;13.198;2023-07-29T11:55:11;3.05;;;1.92;;
69240;SDS011;56352;55.750;13.198;2023-07-29T11:57:40;2.78;;;2.00;;
69240;SDS011;56352;55.750;13.198;2023-07-29T12:00:09;3.13;;;2.20;;
69240;SDS011;56352;55.750;13.198;2023-07-29T12:02:39;3.65;;;2.10;;
69240;SDS011;56352;55.750;13.198;2023-07-29T12:05:08;3.28;;;2.33;;
69240;SDS011;56352;55.750;13.198;2023-07-29T12:07:36;4.68;;;2.17;;
69240;SDS011;56352;55.750;13.198;2023-07-29T12:10:05;2.40;;;1.92;;
69240;SDS011;56352;55.750;13.198;2023-07-29T12:12:32;2.80;;;2.05;;
69240;SDS011;56352;55.750;13.198;2023-07-29T12:14:59;2.80;;;2.10;;
69240;SDS011;56352;55.750;13.198;2023-07-29T12:17:27;4.82;;;2.75;;
69240;SDS011;56352;55.750;13.198;2023-07-29T12:19:54;2.23;;;2.03;;
69240;SDS011;56352;55.750;13.198;2023-07-29T12:22:22;2.13;;;1.92;;
69240;SDS011;56352;55.750;13.198;2023-07-29T12:24:51;2.10;;;1.90;;
69240;SDS011;56352;55.750;13.198;2023-07-29T12:27:19;2.63;;;2.42;;
69240;SDS011;56352;55.750;13.198;2023-07-29T12:29:48;2.20;;;2.00;;
69240;SDS011;56352;55.750;13.198;2023-07-29T12:32:18;3.45;;;1.98;;
69240;SDS011;56352;55.750;13.198;2023-07-29T12:34:45;1.88;;;1.75;;
69240;SDS011;56352;55.750;13.198;2023-07-29T12:37:12;2.35;;;2.10;;
69240;SDS011;56352;55.750;13.198;2023-07-29T12:39:42;2.58;;;2.20;;
69240;SDS011;56352;55.750;13.198;2023-07-29T12:42:09;3.17;;;2.28;;
69240;SDS011;56352;55.750;13.198;2023-07-29T12:44:36;2.22;;;2.00;;
69240;SDS011;56352;55.750;13.198;2023-07-29T12:47:05;4.28;;;2.17;;
69240;SDS011;56352;55.750;13.198;2023-07-29T12:49:32;3.45;;;1.95;;
69240;SDS011;56352;55.750;13.198;2023-07-29T12:51:59;4.38;;;2.28;;
69240;SDS011;56352;55.750;13.198;2023-07-29T12:54:26;2.42;;;2.22;;
69240;SDS011;56352;55.750;13.198;2023-07-29T12:56:53;2.58;;;1.77;;
69240;SDS011;56352;55.750;13.198;2023-07-29T12:59:20;2.63;;;2.00;;
69240;SDS011;56352;55.750;13.198;2023-07-29T13:01:47;2.65;;;2.20;;
69240;SDS011;56352;55.750;13.198;2023-07-29T13:04:14;1.95;;;1.75;;
69240;SDS011;56352;55.750;13.198;2023-07-29T13:06:41;2.85;;;2.35;;
69240;SDS011;56352;55.750;13.198;2023-07-29T13:09:08;2.65;;;2.20;;
69240;SDS011;56352;55.750;13.198;2023-07-29T13:11:35;2.17;;;1.98;;
69240;SDS011;56352;55.750;13.198;2023-07-29T13:14:02;4.85;;;1.95;;
69240;SDS011;56352;55.750;13.198;2023-07-29T13:16:29;2.63;;;2.30;;
69240;SDS011;56352;55.750;13.198;2023-07-29T13:18:58;3.65;;;2.25;;
69240;SDS011;56352;55.750;13.198;2023-07-29T13:21:25;2.63;;;2.17;;
69240;SDS011;56352;55.750;13.198;2023-07-29T13:23:52;2.67;;;2.00;;
69240;SDS011;56352;55.750;13.198;2023-07-29T13:26:19;2.78;;;1.85;;
69240;SDS011;56352;55.750;13.198;2023-07-29T13:28:46;3.08;;;2.20;;
69240;SDS011;56352;55.750;13.198;2023-07-29T13:31:14;2.20;;;1.75;;
69240;SDS011;56352;55.750;13.198;2023-07-29T13:33:44;2.90;;;2.15;;
69240;SDS011;56352;55.750;13.198;2023-07-29T13:36:17;2.72;;;1.90;;
69240;SDS011;56352;55.750;13.198;2023-07-29T13:38:44;3.65;;;2.33;;
69240;SDS011;56352;55.750;13.198;2023-07-29T13:41:11;2.25;;;2.03;;
69240;SDS011;56352;55.750;13.198;2023-07-29T13:43:38;2.92;;;2.65;;
69240;SDS011;56352;55.750;13.198;2023-07-29T13:46:04;2.58;;;2.38;;
69240;SDS011;56352;55.750;13.198;2023-07-29T13:48:31;2.58;;;1.88;;
69240;SDS011;56352;55.750;13.198;2023-07-29T13:50:59;2.57;;;2.00;;
69240;SDS011;56352;55.750;13.198;2023-07-29T13:53:26;4.40;;;1.80;;
69240;SDS011;56352;55.750;13.198;2023-07-29T13:55:52;2.10;;;1.90;;
69240;SDS011;56352;55.750;13.198;2023-07-29T13:58:19;2.25;;;1.70;;
69240;SDS011;56352;55.750;13.198;2023-07-29T14:00:46;2.33;;;1.73;;
69240;SDS011;56352;55.750;13.198;2023-07-29T14:03:12;1.80;;;1.60;;
69240;SDS011;56352;55.750;13.198;2023-07-29T14:05:39;1.92;;;1.63;;
69240;SDS011;56352;55.750;13.198;2023-07-29T14:08:06;2.30;;;1.75;;
69240;SDS011;56352;55.750;13.198;2023-07-29T14:10:33;1.75;;;1.65;;
69240;SDS011;56352;55.750;13.198;2023-07-29T14:12:59;2.20;;;1.80;;
69240;SDS011;56352;55.750;13.198;2023-07-29T14:15:26;2.40;;;2.20;;
69240;SDS011;56352;55.750;13.198;2023-07-29T14:17:54;3.28;;;1.83;;
69240;SDS011;56352;55.750;13.198;2023-07-29T14:20:21;3.50;;;2.05;;
69240;SDS011;56352;55.750;13.198;2023-07-29T14:22:48;2.53;;;1.95;;
69240;SDS011;56352;55.750;13.198;2023-07-29T14:25:15;3.10;;;2.33;;
69240;SDS011;56352;55.750;13.198;2023-07-29T14:27:42;2.58;;;2.38;;
69240;SDS011;56352;55.750;13.198;2023-07-29T14:30:09;2.63;;;2.03;;
69240;SDS011;56352;55.750;13.198;2023-07-29T14:32:36;2.10;;;1.90;;
69240;SDS011;56352;55.750;13.198;2023-07-29T14:35:04;2.10;;;1.90;;
69240;SDS011;56352;55.750;13.198;2023-07-29T14:37:31;2.33;;;1.88;;
69240;SDS011;56352;55.750;13.198;2023-07-29T14:39:58;2.30;;;2.10;;
69240;SDS011;56352;55.750;13.198;2023-07-29T14:42:26;2.20;;;2.00;;
69240;SDS011;56352;55.750;13.198;2023-07-29T14:44:53;3.17;;;2.17;;
69240;SDS011;56352;55.750;13.198;2023-07-29T14:47:20;2.63;;;2.15;;
69240;SDS011;56352;55.750;13.198;2023-07-29T14:49:47;2.85;;;2.13;;
69240;SDS011;56352;55.750;13.198;2023-07-29T14:52:14;1.95;;;1.85;;
69240;SDS011;56352;55.750;13.198;2023-07-29T14:54:40;2.92;;;2.50;;
69240;SDS011;56352;55.750;13.198;2023-07-29T14:57:10;3.20;;;2.40;;
69240;SDS011;56352;55.750;13.198;2023-07-29T14:59:37;2.78;;;2.50;;
69240;SDS011;56352;55.750;13.198;2023-07-29T15:02:05;2.58;;;2.15;;
69240;SDS011;56352;55.750;13.198;2023-07-29T15:04:32;2.80;;;2.38;;
69240;SDS011;56352;55.750;13.198;2023-07-29T15:06:59;3.47;;;2.50;;
69240;SDS011;56352;55.750;13.198;2023-07-29T15:09:26;3.08;;;2.55;;
69240;SDS011;56352;55.750;13.198;2023-07-29T15:11:53;4.60;;;2.75;;
69240;SDS011;56352;55.750;13.198;2023-07-29T15:14:23;3.25;;;2.55;;
69240;SDS011;56352;55.750;13.198;2023-07-29T15:16:50;2.63;;;2.42;;
69240;SDS011;56352;55.750;13.198;2023-07-29T15:19:16;2.95;;;2.50;;
69240;SDS011;56352;55.750;13.198;2023-07-29T15:21:44;3.25;;;2.90;;
69240;SDS011;56352;55.750;13.198;2023-07-29T15:24:11;2.97;;;2.50;;
69240;SDS011;56352;55.750;13.198;2023-07-29T15:26:38;2.97;;;2.72;;
69240;SDS011;56352;55.750;13.198;2023-07-29T15:29:05;3.33;;;2.70;;
69240;SDS011;56352;55.750;13.198;2023-07-29T15:31:33;3.35;;;2.65;;